sensor_id;sensor_type;location;lat;lon;timestamp;P1;durP1;ratioP1;P2;durP2;ratioP2
18612;SDS011;9436;52.152;21.032;2022-12-07T00:01:05;34.17;;;25.77;;
18612;SDS011;9436;52.152;21.032;2022-12-07T00:03:33;30.10;;;23.90;;
18612;SDS011;9436;52.152;21.032;2022-12-07T00:06:01;34.23;;;25.80;;
18612;SDS011;9436;52.152;21.032;2022-12-07T00:08:29;33.80;;;24.63;;
18612;SDS011;9436;52.152;21.032;2022-12-07T00:11:00;35.07;;;25.17;;
18612;SDS011;9436;52.152;21.032;2022-12-07T00:13:28;33.17;;;25.47;;
18612;SDS011;9436;52.152;21.032;2022-12-07T00:15:57;33.50;;;25.47;;
18612;SDS011;9436;52.152;21.032;2022-12-07T00:18:27;35.40;;;25.37;;
18612;SDS011;9436;52.152;21.032;2022-12-07T00:20:58;33.23;;;24.87;;
18612;SDS011;9436;52.152;21.032;2022-12-07T00:23:26;29.03;;;22.23;;
18612;SDS011;9436;52.152;21.032;2022-12-07T00:25:53;33.27;;;25.53;;
18612;SDS011;9436;52.152;21.032;2022-12-07T00:28:20;32.13;;;24.23;;
18612;SDS011;9436;52.152;21.032;2022-12-07T00:30:47;33.00;;;24.03;;
18612;SDS011;9436;52.152;21.032;2022-12-07T00:33:16;34.70;;;24.30;;
18612;SDS011;9436;52.152;21.032;2022-12-07T00:35:43;30.40;;;24.33;;
18612;SDS011;9436;52.152;21.032;2022-12-07T00:38:10;31.80;;;25.13;;
18612;SDS011;9436;52.152;21.032;2022-12-07T00:40:37;30.77;;;23.87;;
18612;SDS011;9436;52.152;21.032;2022-12-07T00:43:04;31.07;;;23.83;;
18612;SDS011;9436;52.152;21.032;2022-12-07T00:45:31;31.47;;;23.20;;
18612;SDS011;9436;52.152;21.032;2022-12-07T00:47:58;31.37;;;23.50;;
18612;SDS011;9436;52.152;21.032;2022-12-07T00:50:26;28.97;;;22.83;;
18612;SDS011;9436;52.152;21.032;2022-12-07T00:52:53;31.43;;;23.43;;
18612;SDS011;9436;52.152;21.032;2022-12-07T00:55:20;29.43;;;22.60;;
18612;SDS011;9436;52.152;21.032;2022-12-07T00:57:48;31.00;;;23.00;;
18612;SDS011;9436;52.152;21.032;2022-12-07T01:00:15;28.13;;;22.27;;
18612;SDS011;9436;52.152;21.032;2022-12-07T01:02:42;33.73;;;23.40;;
18612;SDS011;9436;52.152;21.032;2022-12-07T01:05:09;31.17;;;22.43;;
18612;SDS011;9436;52.152;21.032;2022-12-07T01:07:38;32.17;;;23.00;;
18612;SDS011;9436;52.152;21.032;2022-12-07T01:10:05;31.10;;;22.57;;
18612;SDS011;9436;52.152;21.032;2022-12-07T01:12:33;30.23;;;22.13;;
18612;SDS011;9436;52.152;21.032;2022-12-07T01:15:00;31.90;;;22.13;;
18612;SDS011;9436;52.152;21.032;2022-12-07T01:17:28;30.87;;;22.17;;
18612;SDS011;9436;52.152;21.032;2022-12-07T01:19:55;30.57;;;22.90;;
18612;SDS011;9436;52.152;21.032;2022-12-07T01:22:22;29.83;;;21.50;;
18612;SDS011;9436;52.152;21.032;2022-12-07T01:24:50;28.10;;;22.80;;
18612;SDS011;9436;52.152;21.032;2022-12-07T01:27:17;28.50;;;21.43;;
18612;SDS011;9436;52.152;21.032;2022-12-07T01:29:44;29.70;;;21.50;;
18612;SDS011;9436;52.152;21.032;2022-12-07T01:32:11;28.20;;;20.50;;
18612;SDS011;9436;52.152;21.032;2022-12-07T01:34:38;24.80;;;19.30;;
18612;SDS011;9436;52.152;21.032;2022-12-07T01:37:05;26.77;;;19.53;;
18612;SDS011;9436;52.152;21.032;2022-12-07T01:39:33;25.10;;;18.70;;
18612;SDS011;9436;52.152;21.032;2022-12-07T01:42:02;23.57;;;17.57;;
18612;SDS011;9436;52.152;21.032;2022-12-07T01:44:30;25.13;;;17.90;;
18612;SDS011;9436;52.152;21.032;2022-12-07T01:46:58;23.90;;;16.97;;
18612;SDS011;9436;52.152;21.032;2022-12-07T01:49:28;21.97;;;16.97;;
18612;SDS011;9436;52.152;21.032;2022-12-07T01:52:06;20.17;;;15.47;;
18612;SDS011;9436;52.152;21.032;2022-12-07T01:54:39;19.97;;;15.07;;
18612;SDS011;9436;52.152;21.032;2022-12-07T01:57:08;19.93;;;14.83;;
18612;SDS011;9436;52.152;21.032;2022-12-07T01:59:36;19.00;;;14.53;;
18612;SDS011;9436;52.152;21.032;2022-12-07T02:02:05;18.10;;;13.70;;
18612;SDS011;9436;52.152;21.032;2022-12-07T02:04:38;16.97;;;12.97;;
18612;SDS011;9436;52.152;21.032;2022-12-07T02:07:05;17.60;;;12.97;;
18612;SDS011;9436;52.152;21.032;2022-12-07T02:09:33;17.97;;;13.40;;
18612;SDS011;9436;52.152;21.032;2022-12-07T02:12:00;17.00;;;12.30;;
18612;SDS011;9436;52.152;21.032;2022-12-07T02:14:28;15.63;;;12.37;;
18612;SDS011;9436;52.152;21.032;2022-12-07T02:17:01;16.50;;;13.27;;
18612;SDS011;9436;52.152;21.032;2022-12-07T02:25:38;14.63;;;11.27;;
18612;SDS011;9436;52.152;21.032;2022-12-07T02:28:22;13.97;;;10.50;;
18612;SDS011;9436;52.152;21.032;2022-12-07T02:30:57;13.53;;;9.93;;
18612;SDS011;9436;52.152;21.032;2022-12-07T02:33:28;13.23;;;9.97;;
18612;SDS011;9436;52.152;21.032;2022-12-07T02:35:59;13.17;;;10.10;;
18612;SDS011;9436;52.152;21.032;2022-12-07T02:38:34;12.77;;;10.20;;
18612;SDS011;9436;52.152;21.032;2022-12-07T02:41:05;12.77;;;10.23;;
18612;SDS011;9436;52.152;21.032;2022-12-07T02:43:38;13.63;;;10.83;;
18612;SDS011;9436;52.152;21.032;2022-12-07T02:46:10;12.30;;;10.17;;
18612;SDS011;9436;52.152;21.032;2022-12-07T02:48:41;13.67;;;10.57;;
18612;SDS011;9436;52.152;21.032;2022-12-07T02:51:09;12.57;;;10.00;;
18612;SDS011;9436;52.152;21.032;2022-12-07T02:53:37;12.17;;;10.10;;
18612;SDS011;9436;52.152;21.032;2022-12-07T02:56:07;14.17;;;10.30;;
18612;SDS011;9436;52.152;21.032;2022-12-07T02:58:47;11.77;;;9.77;;
18612;SDS011;9436;52.152;21.032;2022-12-07T03:01:27;11.47;;;9.90;;
18612;SDS011;9436;52.152;21.032;2022-12-07T03:04:02;11.87;;;9.50;;
18612;SDS011;9436;52.152;21.032;2022-12-07T03:06:43;11.33;;;9.30;;
18612;SDS011;9436;52.152;21.032;2022-12-07T03:09:20;11.73;;;8.90;;
18612;SDS011;9436;52.152;21.032;2022-12-07T03:11:52;10.27;;;8.07;;
18612;SDS011;9436;52.152;21.032;2022-12-07T03:14:29;9.10;;;8.10;;
18612;SDS011;9436;52.152;21.032;2022-12-07T03:17:00;8.07;;;6.90;;
18612;SDS011;9436;52.152;21.032;2022-12-07T03:19:32;8.83;;;7.20;;
18612;SDS011;9436;52.152;21.032;2022-12-07T03:22:02;7.27;;;6.37;;
18612;SDS011;9436;52.152;21.032;2022-12-07T03:24:35;7.40;;;6.23;;
18612;SDS011;9436;52.152;21.032;2022-12-07T03:27:07;10.70;;;6.00;;
18612;SDS011;9436;52.152;21.032;2022-12-07T03:29:38;6.70;;;5.67;;
18612;SDS011;9436;52.152;21.032;2022-12-07T03:32:13;6.03;;;5.27;;
18612;SDS011;9436;52.152;21.032;2022-12-07T03:34:46;6.50;;;5.70;;
18612;SDS011;9436;52.152;21.032;2022-12-07T03:37:17;7.27;;;5.53;;
18612;SDS011;9436;52.152;21.032;2022-12-07T03:39:51;7.67;;;5.97;;
18612;SDS011;9436;52.152;21.032;2022-12-07T03:42:28;6.10;;;5.23;;
18612;SDS011;9436;52.152;21.032;2022-12-07T03:44:56;5.97;;;5.37;;
18612;SDS011;9436;52.152;21.032;2022-12-07T03:47:26;5.37;;;4.87;;
18612;SDS011;9436;52.152;21.032;2022-12-07T03:49:59;6.23;;;5.63;;
18612;SDS011;9436;52.152;21.032;2022-12-07T03:52:31;5.30;;;4.80;;
18612;SDS011;9436;52.152;21.032;2022-12-07T03:55:02;5.50;;;4.77;;
18612;SDS011;9436;52.152;21.032;2022-12-07T03:57:33;6.23;;;5.10;;
18612;SDS011;9436;52.152;21.032;2022-12-07T04:00:01;6.00;;;5.40;;
18612;SDS011;9436;52.152;21.032;2022-12-07T04:02:33;4.97;;;4.47;;
18612;SDS011;9436;52.152;21.032;2022-12-07T04:05:00;5.30;;;4.80;;
18612;SDS011;9436;52.152;21.032;2022-12-07T04:07:28;5.13;;;4.63;;
18612;SDS011;9436;52.152;21.032;2022-12-07T04:16:40;5.95;;;5.38;;
18612;SDS011;9436;52.152;21.032;2022-12-07T04:19:08;5.87;;;5.13;;
18612;SDS011;9436;52.152;21.032;2022-12-07T04:21:35;5.53;;;4.97;;
18612;SDS011;9436;52.152;21.032;2022-12-07T04:24:02;5.80;;;4.87;;
18612;SDS011;9436;52.152;21.032;2022-12-07T04:26:30;6.07;;;5.30;;
18612;SDS011;9436;52.152;21.032;2022-12-07T04:28:57;5.40;;;4.90;;
18612;SDS011;9436;52.152;21.032;2022-12-07T04:31:24;5.83;;;5.23;;
18612;SDS011;9436;52.152;21.032;2022-12-07T04:33:51;6.73;;;5.30;;
18612;SDS011;9436;52.152;21.032;2022-12-07T04:36:20;5.93;;;4.93;;
18612;SDS011;9436;52.152;21.032;2022-12-07T04:38:47;6.13;;;5.53;;
18612;SDS011;9436;52.152;21.032;2022-12-07T04:41:14;8.77;;;5.30;;
18612;SDS011;9436;52.152;21.032;2022-12-07T04:43:41;7.70;;;5.60;;
18612;SDS011;9436;52.152;21.032;2022-12-07T04:46:08;6.33;;;5.40;;
18612;SDS011;9436;52.152;21.032;2022-12-07T04:48:35;7.17;;;6.30;;
18612;SDS011;9436;52.152;21.032;2022-12-07T04:51:03;6.83;;;5.90;;
18612;SDS011;9436;52.152;21.032;2022-12-07T04:53:31;6.47;;;5.80;;
18612;SDS011;9436;52.152;21.032;2022-12-07T04:55:58;6.97;;;6.00;;
18612;SDS011;9436;52.152;21.032;2022-12-07T04:58:26;7.60;;;5.73;;
18612;SDS011;9436;52.152;21.032;2022-12-07T05:00:53;7.07;;;5.93;;
18612;SDS011;9436;52.152;21.032;2022-12-07T05:03:21;6.87;;;6.17;;
18612;SDS011;9436;52.152;21.032;2022-12-07T05:05:48;8.67;;;6.70;;
18612;SDS011;9436;52.152;21.032;2022-12-07T05:08:15;8.53;;;6.60;;
18612;SDS011;9436;52.152;21.032;2022-12-07T05:10:44;7.33;;;6.63;;
18612;SDS011;9436;52.152;21.032;2022-12-07T05:13:11;7.53;;;6.67;;
18612;SDS011;9436;52.152;21.032;2022-12-07T05:15:39;8.13;;;6.73;;
18612;SDS011;9436;52.152;21.032;2022-12-07T05:18:07;7.80;;;7.00;;
18612;SDS011;9436;52.152;21.032;2022-12-07T05:20:34;8.47;;;7.37;;
18612;SDS011;9436;52.152;21.032;2022-12-07T05:23:01;8.37;;;7.47;;
18612;SDS011;9436;52.152;21.032;2022-12-07T05:25:29;9.67;;;7.90;;
18612;SDS011;9436;52.152;21.032;2022-12-07T05:27:57;8.77;;;7.73;;
18612;SDS011;9436;52.152;21.032;2022-12-07T05:30:24;9.17;;;8.27;;
18612;SDS011;9436;52.152;21.032;2022-12-07T05:32:54;8.83;;;7.80;;
18612;SDS011;9436;52.152;21.032;2022-12-07T05:35:21;9.43;;;7.43;;
18612;SDS011;9436;52.152;21.032;2022-12-07T05:37:48;9.07;;;7.93;;
18612;SDS011;9436;52.152;21.032;2022-12-07T05:40:15;8.83;;;7.93;;
18612;SDS011;9436;52.152;21.032;2022-12-07T05:42:44;10.00;;;7.67;;
18612;SDS011;9436;52.152;21.032;2022-12-07T05:45:12;8.47;;;7.57;;
18612;SDS011;9436;52.152;21.032;2022-12-07T05:47:39;9.70;;;8.10;;
18612;SDS011;9436;52.152;21.032;2022-12-07T05:50:07;8.87;;;7.43;;
18612;SDS011;9436;52.152;21.032;2022-12-07T05:52:34;10.67;;;8.00;;
18612;SDS011;9436;52.152;21.032;2022-12-07T05:55:01;9.43;;;7.60;;
18612;SDS011;9436;52.152;21.032;2022-12-07T05:57:28;10.43;;;8.47;;
18612;SDS011;9436;52.152;21.032;2022-12-07T05:59:55;8.37;;;7.47;;
18612;SDS011;9436;52.152;21.032;2022-12-07T06:02:22;9.37;;;8.20;;
18612;SDS011;9436;52.152;21.032;2022-12-07T06:04:49;11.77;;;8.37;;
18612;SDS011;9436;52.152;21.032;2022-12-07T06:07:16;11.07;;;8.70;;
18612;SDS011;9436;52.152;21.032;2022-12-07T06:09:43;13.07;;;9.27;;
18612;SDS011;9436;52.152;21.032;2022-12-07T06:12:11;10.10;;;8.23;;
18612;SDS011;9436;52.152;21.032;2022-12-07T06:14:56;9.70;;;8.00;;
18612;SDS011;9436;52.152;21.032;2022-12-07T06:17:24;11.27;;;8.97;;
18612;SDS011;9436;52.152;21.032;2022-12-07T06:19:51;10.07;;;8.80;;
18612;SDS011;9436;52.152;21.032;2022-12-07T06:22:18;10.50;;;8.77;;
18612;SDS011;9436;52.152;21.032;2022-12-07T06:24:45;11.77;;;8.43;;
18612;SDS011;9436;52.152;21.032;2022-12-07T06:27:12;10.07;;;8.30;;
18612;SDS011;9436;52.152;21.032;2022-12-07T06:29:40;8.83;;;7.93;;
18612;SDS011;9436;52.152;21.032;2022-12-07T06:32:07;9.57;;;7.40;;
18612;SDS011;9436;52.152;21.032;2022-12-07T06:34:35;9.10;;;8.03;;
18612;SDS011;9436;52.152;21.032;2022-12-07T06:37:02;9.97;;;8.20;;
18612;SDS011;9436;52.152;21.032;2022-12-07T06:39:29;10.07;;;7.70;;
18612;SDS011;9436;52.152;21.032;2022-12-07T06:41:58;10.33;;;7.87;;
18612;SDS011;9436;52.152;21.032;2022-12-07T06:44:25;8.93;;;7.87;;
18612;SDS011;9436;52.152;21.032;2022-12-07T06:46:52;9.50;;;7.53;;
18612;SDS011;9436;52.152;21.032;2022-12-07T06:49:19;9.77;;;7.33;;
18612;SDS011;9436;52.152;21.032;2022-12-07T06:51:48;11.77;;;7.20;;
18612;SDS011;9436;52.152;21.032;2022-12-07T06:54:15;8.70;;;7.07;;
18612;SDS011;9436;52.152;21.032;2022-12-07T06:56:42;9.97;;;7.43;;
18612;SDS011;9436;52.152;21.032;2022-12-07T06:59:09;10.83;;;7.93;;
18612;SDS011;9436;52.152;21.032;2022-12-07T07:01:36;9.67;;;7.90;;
18612;SDS011;9436;52.152;21.032;2022-12-07T07:04:03;9.43;;;8.30;;
18612;SDS011;9436;52.152;21.032;2022-12-07T07:06:30;9.90;;;8.53;;
18612;SDS011;9436;52.152;21.032;2022-12-07T07:08:59;10.20;;;8.30;;
18612;SDS011;9436;52.152;21.032;2022-12-07T07:11:26;10.53;;;8.83;;
18612;SDS011;9436;52.152;21.032;2022-12-07T07:13:53;10.30;;;8.47;;
18612;SDS011;9436;52.152;21.032;2022-12-07T07:16:22;9.87;;;7.90;;
18612;SDS011;9436;52.152;21.032;2022-12-07T07:18:49;9.70;;;8.30;;
18612;SDS011;9436;52.152;21.032;2022-12-07T07:21:16;10.77;;;8.90;;
18612;SDS011;9436;52.152;21.032;2022-12-07T07:23:43;9.37;;;8.10;;
18612;SDS011;9436;52.152;21.032;2022-12-07T07:26:12;9.30;;;7.70;;
18612;SDS011;9436;52.152;21.032;2022-12-07T07:28:41;9.23;;;7.83;;
18612;SDS011;9436;52.152;21.032;2022-12-07T07:31:08;9.90;;;7.87;;
18612;SDS011;9436;52.152;21.032;2022-12-07T07:33:35;11.30;;;7.87;;
18612;SDS011;9436;52.152;21.032;2022-12-07T07:36:02;11.87;;;8.20;;
18612;SDS011;9436;52.152;21.032;2022-12-07T07:38:30;10.90;;;8.60;;
18612;SDS011;9436;52.152;21.032;2022-12-07T07:40:57;11.53;;;9.20;;
18612;SDS011;9436;52.152;21.032;2022-12-07T07:43:26;11.13;;;8.17;;
18612;SDS011;9436;52.152;21.032;2022-12-07T07:45:53;10.43;;;8.43;;
18612;SDS011;9436;52.152;21.032;2022-12-07T07:48:20;10.17;;;8.00;;
18612;SDS011;9436;52.152;21.032;2022-12-07T07:50:47;8.67;;;7.67;;
18612;SDS011;9436;52.152;21.032;2022-12-07T07:53:14;9.20;;;7.50;;
18612;SDS011;9436;52.152;21.032;2022-12-07T07:55:41;8.87;;;7.73;;
18612;SDS011;9436;52.152;21.032;2022-12-07T07:58:17;8.87;;;7.43;;
18612;SDS011;9436;52.152;21.032;2022-12-07T08:00:45;8.77;;;7.70;;
18612;SDS011;9436;52.152;21.032;2022-12-07T08:03:12;8.77;;;6.50;;
18612;SDS011;9436;52.152;21.032;2022-12-07T08:05:39;8.97;;;7.07;;
18612;SDS011;9436;52.152;21.032;2022-12-07T08:08:06;9.63;;;7.53;;
18612;SDS011;9436;52.152;21.032;2022-12-07T08:10:33;8.90;;;7.40;;
18612;SDS011;9436;52.152;21.032;2022-12-07T08:13:02;8.70;;;7.67;;
18612;SDS011;9436;52.152;21.032;2022-12-07T08:15:39;9.47;;;8.03;;
18612;SDS011;9436;52.152;21.032;2022-12-07T08:18:09;10.23;;;8.90;;
18612;SDS011;9436;52.152;21.032;2022-12-07T08:20:36;10.70;;;8.93;;
18612;SDS011;9436;52.152;21.032;2022-12-07T08:23:04;9.93;;;8.23;;
18612;SDS011;9436;52.152;21.032;2022-12-07T08:25:31;12.13;;;8.37;;
18612;SDS011;9436;52.152;21.032;2022-12-07T08:27:59;9.43;;;8.00;;
18612;SDS011;9436;52.152;21.032;2022-12-07T08:30:27;8.80;;;7.90;;
18612;SDS011;9436;52.152;21.032;2022-12-07T08:32:55;10.70;;;7.80;;
18612;SDS011;9436;52.152;21.032;2022-12-07T08:35:23;10.80;;;7.90;;
18612;SDS011;9436;52.152;21.032;2022-12-07T08:37:51;10.07;;;8.07;;
18612;SDS011;9436;52.152;21.032;2022-12-07T08:40:18;10.73;;;8.47;;
18612;SDS011;9436;52.152;21.032;2022-12-07T08:42:48;11.10;;;8.73;;
18612;SDS011;9436;52.152;21.032;2022-12-07T08:45:16;12.27;;;8.87;;
18612;SDS011;9436;52.152;21.032;2022-12-07T08:47:44;10.97;;;9.00;;
18612;SDS011;9436;52.152;21.032;2022-12-07T08:50:13;11.03;;;8.37;;
18612;SDS011;9436;52.152;21.032;2022-12-07T08:52:42;12.13;;;9.00;;
18612;SDS011;9436;52.152;21.032;2022-12-07T08:55:10;12.60;;;10.07;;
18612;SDS011;9436;52.152;21.032;2022-12-07T08:57:38;12.73;;;8.83;;
18612;SDS011;9436;52.152;21.032;2022-12-07T09:00:06;13.20;;;11.70;;
18612;SDS011;9436;52.152;21.032;2022-12-07T09:02:34;13.00;;;10.27;;
18612;SDS011;9436;52.152;21.032;2022-12-07T09:05:01;11.97;;;10.00;;
18612;SDS011;9436;52.152;21.032;2022-12-07T09:07:28;11.43;;;9.67;;
18612;SDS011;9436;52.152;21.032;2022-12-07T09:09:59;13.27;;;10.30;;
18612;SDS011;9436;52.152;21.032;2022-12-07T09:12:26;14.57;;;10.63;;
18612;SDS011;9436;52.152;21.032;2022-12-07T09:14:53;13.20;;;10.87;;
18612;SDS011;9436;52.152;21.032;2022-12-07T09:17:20;13.60;;;10.40;;
18612;SDS011;9436;52.152;21.032;2022-12-07T09:19:48;13.90;;;10.90;;
18612;SDS011;9436;52.152;21.032;2022-12-07T09:22:15;13.67;;;9.90;;
18612;SDS011;9436;52.152;21.032;2022-12-07T09:24:42;14.03;;;10.87;;
18612;SDS011;9436;52.152;21.032;2022-12-07T09:27:12;14.93;;;11.07;;
18612;SDS011;9436;52.152;21.032;2022-12-07T09:29:39;13.70;;;11.10;;
18612;SDS011;9436;52.152;21.032;2022-12-07T09:32:06;16.77;;;10.93;;
18612;SDS011;9436;52.152;21.032;2022-12-07T09:34:33;14.80;;;11.07;;
18612;SDS011;9436;52.152;21.032;2022-12-07T09:37:01;14.30;;;10.37;;
18612;SDS011;9436;52.152;21.032;2022-12-07T09:39:29;16.27;;;11.50;;
18612;SDS011;9436;52.152;21.032;2022-12-07T09:41:56;16.27;;;11.57;;
18612;SDS011;9436;52.152;21.032;2022-12-07T09:44:26;14.03;;;10.87;;
18612;SDS011;9436;52.152;21.032;2022-12-07T09:46:53;17.63;;;10.90;;
18612;SDS011;9436;52.152;21.032;2022-12-07T09:49:22;16.20;;;11.03;;
18612;SDS011;9436;52.152;21.032;2022-12-07T09:51:59;16.83;;;11.33;;
18612;SDS011;9436;52.152;21.032;2022-12-07T09:54:28;14.43;;;10.87;;
18612;SDS011;9436;52.152;21.032;2022-12-07T09:56:56;17.57;;;11.27;;
18612;SDS011;9436;52.152;21.032;2022-12-07T09:59:29;16.23;;;11.10;;
18612;SDS011;9436;52.152;21.032;2022-12-07T10:01:56;15.23;;;10.47;;
18612;SDS011;9436;52.152;21.032;2022-12-07T10:04:50;15.97;;;10.90;;
18612;SDS011;9436;52.152;21.032;2022-12-07T10:07:17;16.17;;;10.70;;
18612;SDS011;9436;52.152;21.032;2022-12-07T10:09:44;10.73;;;8.30;;
18612;SDS011;9436;52.152;21.032;2022-12-07T10:12:11;17.33;;;10.93;;
18612;SDS011;9436;52.152;21.032;2022-12-07T10:14:48;15.10;;;11.53;;
18612;SDS011;9436;52.152;21.032;2022-12-07T10:17:28;14.23;;;9.43;;
18612;SDS011;9436;52.152;21.032;2022-12-07T10:20:18;13.63;;;10.07;;
18612;SDS011;9436;52.152;21.032;2022-12-07T10:22:54;15.03;;;10.40;;
18612;SDS011;9436;52.152;21.032;2022-12-07T10:25:24;13.63;;;9.87;;
18612;SDS011;9436;52.152;21.032;2022-12-07T10:30:47;12.43;;;9.73;;
18612;SDS011;9436;52.152;21.032;2022-12-07T10:33:30;12.43;;;9.60;;
18612;SDS011;9436;52.152;21.032;2022-12-07T10:35:59;10.40;;;9.07;;
18612;SDS011;9436;52.152;21.032;2022-12-07T10:38:28;11.03;;;8.73;;
18612;SDS011;9436;52.152;21.032;2022-12-07T10:41:04;11.43;;;9.00;;
18612;SDS011;9436;52.152;21.032;2022-12-07T10:43:32;12.00;;;9.83;;
18612;SDS011;9436;52.152;21.032;2022-12-07T10:49:08;11.50;;;9.40;;
18612;SDS011;9436;52.152;21.032;2022-12-07T10:51:50;10.67;;;8.70;;
18612;SDS011;9436;52.152;21.032;2022-12-07T10:54:25;10.80;;;9.00;;
18612;SDS011;9436;52.152;21.032;2022-12-07T10:57:06;10.30;;;8.63;;
18612;SDS011;9436;52.152;21.032;2022-12-07T10:59:52;11.20;;;9.20;;
18612;SDS011;9436;52.152;21.032;2022-12-07T11:02:34;12.57;;;9.17;;
18612;SDS011;9436;52.152;21.032;2022-12-07T11:05:19;11.53;;;9.13;;
18612;SDS011;9436;52.152;21.032;2022-12-07T11:07:55;10.70;;;9.40;;
18612;SDS011;9436;52.152;21.032;2022-12-07T11:10:31;10.67;;;9.53;;
18612;SDS011;9436;52.152;21.032;2022-12-07T11:13:13;12.17;;;9.80;;
18612;SDS011;9436;52.152;21.032;2022-12-07T11:18:45;12.23;;;10.00;;
18612;SDS011;9436;52.152;21.032;2022-12-07T11:21:33;12.27;;;9.60;;
18612;SDS011;9436;52.152;21.032;2022-12-07T11:24:10;10.97;;;9.03;;
18612;SDS011;9436;52.152;21.032;2022-12-07T11:26:46;11.77;;;9.93;;
18612;SDS011;9436;52.152;21.032;2022-12-07T11:29:29;12.87;;;10.00;;
18612;SDS011;9436;52.152;21.032;2022-12-07T11:32:07;12.90;;;10.20;;
18612;SDS011;9436;52.152;21.032;2022-12-07T11:34:45;13.37;;;10.17;;
18612;SDS011;9436;52.152;21.032;2022-12-07T11:37:23;13.67;;;10.10;;
18612;SDS011;9436;52.152;21.032;2022-12-07T11:39:56;11.80;;;9.73;;
18612;SDS011;9436;52.152;21.032;2022-12-07T11:42:29;14.10;;;10.87;;
18612;SDS011;9436;52.152;21.032;2022-12-07T11:45:00;11.83;;;10.00;;
18612;SDS011;9436;52.152;21.032;2022-12-07T11:47:38;12.50;;;10.00;;
18612;SDS011;9436;52.152;21.032;2022-12-07T11:50:21;11.57;;;9.87;;
18612;SDS011;9436;52.152;21.032;2022-12-07T11:52:53;13.60;;;10.37;;
18612;SDS011;9436;52.152;21.032;2022-12-07T11:55:26;12.10;;;10.37;;
18612;SDS011;9436;52.152;21.032;2022-12-07T11:58:00;11.60;;;10.27;;
18612;SDS011;9436;52.152;21.032;2022-12-07T12:00:35;13.00;;;10.43;;
18612;SDS011;9436;52.152;21.032;2022-12-07T12:03:05;13.13;;;10.50;;
18612;SDS011;9436;52.152;21.032;2022-12-07T12:05:40;14.43;;;10.43;;
18612;SDS011;9436;52.152;21.032;2022-12-07T12:08:13;12.00;;;10.53;;
18612;SDS011;9436;52.152;21.032;2022-12-07T12:10:45;12.03;;;10.57;;
18612;SDS011;9436;52.152;21.032;2022-12-07T12:13:26;12.97;;;10.50;;
18612;SDS011;9436;52.152;21.032;2022-12-07T12:16:19;14.40;;;12.10;;
18612;SDS011;9436;52.152;21.032;2022-12-07T12:19:19;14.37;;;11.57;;
18612;SDS011;9436;52.152;21.032;2022-12-07T12:21:55;14.80;;;11.77;;
18612;SDS011;9436;52.152;21.032;2022-12-07T12:24:26;14.67;;;11.27;;
18612;SDS011;9436;52.152;21.032;2022-12-07T12:27:01;14.03;;;11.43;;
18612;SDS011;9436;52.152;21.032;2022-12-07T12:29:31;13.23;;;11.10;;
18612;SDS011;9436;52.152;21.032;2022-12-07T12:32:05;11.77;;;9.77;;
18612;SDS011;9436;52.152;21.032;2022-12-07T12:34:40;13.43;;;10.70;;
18612;SDS011;9436;52.152;21.032;2022-12-07T12:55:18;12.67;;;9.60;;
18612;SDS011;9436;52.152;21.032;2022-12-07T13:04:12;11.23;;;9.00;;
18612;SDS011;9436;52.152;21.032;2022-12-07T13:06:49;10.07;;;8.70;;
18612;SDS011;9436;52.152;21.032;2022-12-07T13:09:17;11.13;;;9.50;;
18612;SDS011;9436;52.152;21.032;2022-12-07T13:11:47;11.30;;;9.60;;
18612;SDS011;9436;52.152;21.032;2022-12-07T13:17:09;10.70;;;9.13;;
18612;SDS011;9436;52.152;21.032;2022-12-07T13:22:39;10.60;;;9.43;;
18612;SDS011;9436;52.152;21.032;2022-12-07T13:25:11;10.47;;;9.23;;
18612;SDS011;9436;52.152;21.032;2022-12-07T13:27:47;11.40;;;9.40;;
18612;SDS011;9436;52.152;21.032;2022-12-07T13:30:20;11.00;;;9.23;;
18612;SDS011;9436;52.152;21.032;2022-12-07T13:32:52;11.67;;;9.70;;
18612;SDS011;9436;52.152;21.032;2022-12-07T13:35:27;10.50;;;9.40;;
18612;SDS011;9436;52.152;21.032;2022-12-07T13:37:59;10.10;;;9.07;;
18612;SDS011;9436;52.152;21.032;2022-12-07T13:40:29;9.70;;;8.70;;
18612;SDS011;9436;52.152;21.032;2022-12-07T13:42:57;9.23;;;8.23;;
18612;SDS011;9436;52.152;21.032;2022-12-07T13:45:26;9.17;;;8.27;;
18612;SDS011;9436;52.152;21.032;2022-12-07T13:48:09;9.30;;;8.40;;
18612;SDS011;9436;52.152;21.032;2022-12-07T13:50:41;10.73;;;9.73;;
18612;SDS011;9436;52.152;21.032;2022-12-07T13:53:11;10.30;;;8.93;;
18612;SDS011;9436;52.152;21.032;2022-12-07T13:55:44;9.60;;;8.60;;
18612;SDS011;9436;52.152;21.032;2022-12-07T13:58:12;9.90;;;8.90;;
18612;SDS011;9436;52.152;21.032;2022-12-07T14:00:39;9.50;;;8.57;;
18612;SDS011;9436;52.152;21.032;2022-12-07T14:03:23;9.30;;;8.17;;
18612;SDS011;9436;52.152;21.032;2022-12-07T14:06:14;9.90;;;8.87;;
18612;SDS011;9436;52.152;21.032;2022-12-07T14:08:44;10.20;;;9.10;;
18612;SDS011;9436;52.152;21.032;2022-12-07T14:11:13;9.67;;;8.67;;
18612;SDS011;9436;52.152;21.032;2022-12-07T14:13:56;10.53;;;9.43;;
18612;SDS011;9436;52.152;21.032;2022-12-07T14:16:26;11.30;;;9.53;;
18612;SDS011;9436;52.152;21.032;2022-12-07T14:18:56;10.73;;;9.57;;
18612;SDS011;9436;52.152;21.032;2022-12-07T14:21:25;11.60;;;9.67;;
18612;SDS011;9436;52.152;21.032;2022-12-07T14:24:08;12.43;;;9.60;;
18612;SDS011;9436;52.152;21.032;2022-12-07T14:26:42;10.03;;;8.90;;
18612;SDS011;9436;52.152;21.032;2022-12-07T14:29:30;10.60;;;9.50;;
18612;SDS011;9436;52.152;21.032;2022-12-07T14:32:10;10.93;;;9.73;;
18612;SDS011;9436;52.152;21.032;2022-12-07T14:34:56;11.10;;;10.00;;
18612;SDS011;9436;52.152;21.032;2022-12-07T14:37:26;11.33;;;10.13;;
18612;SDS011;9436;52.152;21.032;2022-12-07T14:39:54;10.53;;;9.37;;
18612;SDS011;9436;52.152;21.032;2022-12-07T14:42:21;11.73;;;9.90;;
18612;SDS011;9436;52.152;21.032;2022-12-07T14:44:51;10.97;;;9.87;;
18612;SDS011;9436;52.152;21.032;2022-12-07T14:47:18;12.27;;;10.10;;
18612;SDS011;9436;52.152;21.032;2022-12-07T14:49:45;10.63;;;9.43;;
18612;SDS011;9436;52.152;21.032;2022-12-07T14:52:15;11.30;;;10.03;;
18612;SDS011;9436;52.152;21.032;2022-12-07T14:54:44;11.20;;;9.07;;
18612;SDS011;9436;52.152;21.032;2022-12-07T14:57:12;11.63;;;10.10;;
18612;SDS011;9436;52.152;21.032;2022-12-07T14:59:39;11.47;;;9.27;;
18612;SDS011;9436;52.152;21.032;2022-12-07T15:02:06;12.77;;;9.10;;
18612;SDS011;9436;52.152;21.032;2022-12-07T15:04:35;10.80;;;9.70;;
18612;SDS011;9436;52.152;21.032;2022-12-07T15:07:03;10.97;;;9.63;;
18612;SDS011;9436;52.152;21.032;2022-12-07T15:09:33;9.07;;;8.13;;
18612;SDS011;9436;52.152;21.032;2022-12-07T15:12:00;11.07;;;9.87;;
18612;SDS011;9436;52.152;21.032;2022-12-07T15:14:27;10.30;;;8.50;;
18612;SDS011;9436;52.152;21.032;2022-12-07T15:16:54;11.80;;;9.70;;
18612;SDS011;9436;52.152;21.032;2022-12-07T15:19:22;10.27;;;9.17;;
18612;SDS011;9436;52.152;21.032;2022-12-07T15:21:51;10.87;;;9.77;;
18612;SDS011;9436;52.152;21.032;2022-12-07T15:24:18;11.70;;;10.23;;
18612;SDS011;9436;52.152;21.032;2022-12-07T15:26:48;11.10;;;9.90;;
18612;SDS011;9436;52.152;21.032;2022-12-07T15:29:15;13.33;;;11.43;;
18612;SDS011;9436;52.152;21.032;2022-12-07T15:31:42;12.87;;;10.77;;
18612;SDS011;9436;52.152;21.032;2022-12-07T15:34:10;11.80;;;10.60;;
18612;SDS011;9436;52.152;21.032;2022-12-07T15:36:37;13.53;;;11.07;;
18612;SDS011;9436;52.152;21.032;2022-12-07T15:39:04;13.93;;;10.10;;
18612;SDS011;9436;52.152;21.032;2022-12-07T15:41:31;12.83;;;10.50;;
18612;SDS011;9436;52.152;21.032;2022-12-07T15:44:00;12.27;;;10.27;;